sensor_id;sensor_type;location;lat;lon;timestamp;P1;durP1;ratioP1;P2;durP2;ratioP2
10170;SDS011;5127;50.922;6.988;2024-02-04T00:00:45;2.20;;;2.10;;
10170;SDS011;5127;50.922;6.988;2024-02-04T00:03:13;2.40;;;2.00;;
10170;SDS011;5127;50.922;6.988;2024-02-04T00:05:40;2.00;;;1.90;;
10170;SDS011;5127;50.922;6.988;2024-02-04T00:08:09;2.23;;;2.03;;
10170;SDS011;5127;50.922;6.988;2024-02-04T00:10:38;2.10;;;2.00;;
10170;SDS011;5127;50.922;6.988;2024-02-04T00:13:05;2.10;;;2.00;;
10170;SDS011;5127;50.922;6.988;2024-02-04T00:15:32;1.90;;;1.80;;
10170;SDS011;5127;50.922;6.988;2024-02-04T00:18:00;2.00;;;1.90;;
10170;SDS011;5127;50.922;6.988;2024-02-04T00:20:27;1.83;;;1.73;;
10170;SDS011;5127;50.922;6.988;2024-02-04T00:22:54;2.20;;;2.10;;
10170;SDS011;5127;50.922;6.988;2024-02-04T00:25:23;2.60;;;2.40;;
10170;SDS011;5127;50.922;6.988;2024-02-04T00:27:50;2.77;;;2.57;;
10170;SDS011;5127;50.922;6.988;2024-02-04T00:30:17;3.17;;;2.90;;
10170;SDS011;5127;50.922;6.988;2024-02-04T00:32:45;3.50;;;3.20;;
10170;SDS011;5127;50.922;6.988;2024-02-04T00:35:12;3.50;;;3.20;;
10170;SDS011;5127;50.922;6.988;2024-02-04T00:37:39;3.40;;;3.17;;
10170;SDS011;5127;50.922;6.988;2024-02-04T00:40:07;3.10;;;2.90;;
10170;SDS011;5127;50.922;6.988;2024-02-04T00:42:37;3.47;;;2.80;;
10170;SDS011;5127;50.922;6.988;2024-02-04T00:45:06;2.83;;;2.63;;
10170;SDS011;5127;50.922;6.988;2024-02-04T00:47:33;2.37;;;2.20;;
10170;SDS011;5127;50.922;6.988;2024-02-04T00:50:01;2.10;;;1.90;;
10170;SDS011;5127;50.922;6.988;2024-02-04T00:52:28;1.80;;;1.70;;
10170;SDS011;5127;50.922;6.988;2024-02-04T00:54:55;1.50;;;1.40;;
10170;SDS011;5127;50.922;6.988;2024-02-04T00:57:23;1.40;;;1.30;;
10170;SDS011;5127;50.922;6.988;2024-02-04T00:59:52;1.40;;;1.30;;
10170;SDS011;5127;50.922;6.988;2024-02-04T01:02:20;1.07;;;1.07;;
10170;SDS011;5127;50.922;6.988;2024-02-04T01:04:47;1.00;;;1.00;;
10170;SDS011;5127;50.922;6.988;2024-02-04T01:07:16;1.10;;;1.00;;
10170;SDS011;5127;50.922;6.988;2024-02-04T01:09:43;0.70;;;0.70;;
10170;SDS011;5127;50.922;6.988;2024-02-04T01:12:11;0.67;;;0.67;;
10170;SDS011;5127;50.922;6.988;2024-02-04T01:14:38;0.93;;;0.87;;
10170;SDS011;5127;50.922;6.988;2024-02-04T01:17:06;0.60;;;0.60;;
10170;SDS011;5127;50.922;6.988;2024-02-04T01:19:34;0.60;;;0.60;;
10170;SDS011;5127;50.922;6.988;2024-02-04T01:22:01;0.50;;;0.50;;
10170;SDS011;5127;50.922;6.988;2024-02-04T01:24:28;0.50;;;0.50;;
10170;SDS011;5127;50.922;6.988;2024-02-04T01:26:57;0.60;;;0.60;;
10170;SDS011;5127;50.922;6.988;2024-02-04T01:29:24;0.70;;;0.70;;
10170;SDS011;5127;50.922;6.988;2024-02-04T01:31:51;0.67;;;0.60;;
10170;SDS011;5127;50.922;6.988;2024-02-04T01:34:21;0.50;;;0.50;;
10170;SDS011;5127;50.922;6.988;2024-02-04T01:36:48;0.60;;;0.60;;
10170;SDS011;5127;50.922;6.988;2024-02-04T01:39:15;0.60;;;0.60;;
10170;SDS011;5127;50.922;6.988;2024-02-04T01:41:42;0.60;;;0.60;;
10170;SDS011;5127;50.922;6.988;2024-02-04T01:44:11;1.23;;;1.00;;
10170;SDS011;5127;50.922;6.988;2024-02-04T01:46:38;0.60;;;0.60;;
10170;SDS011;5127;50.922;6.988;2024-02-04T01:49:06;0.63;;;0.53;;
10170;SDS011;5127;50.922;6.988;2024-02-04T01:51:35;0.43;;;0.43;;
10170;SDS011;5127;50.922;6.988;2024-02-04T01:54:03;0.40;;;0.40;;
10170;SDS011;5127;50.922;6.988;2024-02-04T01:56:31;0.40;;;0.40;;
10170;SDS011;5127;50.922;6.988;2024-02-04T01:58:59;0.40;;;0.40;;
10170;SDS011;5127;50.922;6.988;2024-02-04T02:01:26;0.50;;;0.50;;
10170;SDS011;5127;50.922;6.988;2024-02-04T02:03:54;0.50;;;0.50;;
10170;SDS011;5127;50.922;6.988;2024-02-04T02:06:22;0.50;;;0.50;;
10170;SDS011;5127;50.922;6.988;2024-02-04T02:08:51;0.40;;;0.40;;
10170;SDS011;5127;50.922;6.988;2024-02-04T02:11:21;0.47;;;0.47;;
10170;SDS011;5127;50.922;6.988;2024-02-04T02:13:56;0.60;;;0.60;;
10170;SDS011;5127;50.922;6.988;2024-02-04T02:16:27;0.70;;;0.70;;
10170;SDS011;5127;50.922;6.988;2024-02-04T02:18:59;0.80;;;0.80;;
10170;SDS011;5127;50.922;6.988;2024-02-04T02:21:35;0.77;;;0.77;;
10170;SDS011;5127;50.922;6.988;2024-02-04T02:24:26;0.60;;;0.60;;
10170;SDS011;5127;50.922;6.988;2024-02-04T02:26:57;0.60;;;0.60;;
10170;SDS011;5127;50.922;6.988;2024-02-04T02:29:24;0.70;;;0.70;;
10170;SDS011;5127;50.922;6.988;2024-02-04T02:31:52;1.50;;;0.90;;
10170;SDS011;5127;50.922;6.988;2024-02-04T02:34:19;1.20;;;0.73;;
10170;SDS011;5127;50.922;6.988;2024-02-04T02:36:49;0.90;;;0.90;;
10170;SDS011;5127;50.922;6.988;2024-02-04T02:39:23;0.93;;;0.90;;
10170;SDS011;5127;50.922;6.988;2024-02-04T02:41:57;1.00;;;0.90;;
10170;SDS011;5127;50.922;6.988;2024-02-04T02:44:41;3.20;;;1.10;;
10170;SDS011;5127;50.922;6.988;2024-02-04T02:47:11;1.47;;;0.90;;
10170;SDS011;5127;50.922;6.988;2024-02-04T02:49:38;0.80;;;0.70;;
10170;SDS011;5127;50.922;6.988;2024-02-04T02:52:06;2.17;;;0.80;;
10170;SDS011;5127;50.922;6.988;2024-02-04T02:54:34;0.90;;;0.90;;
10170;SDS011;5127;50.922;6.988;2024-02-04T02:57:02;1.80;;;0.70;;
10170;SDS011;5127;50.922;6.988;2024-02-04T02:59:29;0.70;;;0.70;;
10170;SDS011;5127;50.922;6.988;2024-02-04T03:01:57;1.20;;;0.70;;
10170;SDS011;5127;50.922;6.988;2024-02-04T03:04:24;0.80;;;0.80;;
10170;SDS011;5127;50.922;6.988;2024-02-04T03:06:52;0.80;;;0.80;;
10170;SDS011;5127;50.922;6.988;2024-02-04T03:09:19;0.77;;;0.77;;
10170;SDS011;5127;50.922;6.988;2024-02-04T03:11:48;0.80;;;0.70;;
10170;SDS011;5127;50.922;6.988;2024-02-04T03:14:15;0.90;;;0.90;;
10170;SDS011;5127;50.922;6.988;2024-02-04T03:16:43;0.70;;;0.70;;
10170;SDS011;5127;50.922;6.988;2024-02-04T03:19:10;1.83;;;0.73;;
10170;SDS011;5127;50.922;6.988;2024-02-04T03:21:38;0.80;;;0.80;;
10170;SDS011;5127;50.922;6.988;2024-02-04T03:24:06;0.83;;;0.83;;
10170;SDS011;5127;50.922;6.988;2024-02-04T03:26:33;0.77;;;0.70;;
10170;SDS011;5127;50.922;6.988;2024-02-04T03:29:02;0.77;;;0.77;;
10170;SDS011;5127;50.922;6.988;2024-02-04T03:31:31;0.80;;;0.80;;
10170;SDS011;5127;50.922;6.988;2024-02-04T03:33:59;0.90;;;0.90;;
10170;SDS011;5127;50.922;6.988;2024-02-04T03:36:26;1.07;;;1.03;;
10170;SDS011;5127;50.922;6.988;2024-02-04T03:38:54;0.80;;;0.80;;
10170;SDS011;5127;50.922;6.988;2024-02-04T03:41:21;1.00;;;1.00;;
10170;SDS011;5127;50.922;6.988;2024-02-04T03:43:48;1.10;;;1.00;;
10170;SDS011;5127;50.922;6.988;2024-02-04T03:46:17;1.03;;;1.03;;
10170;SDS011;5127;50.922;6.988;2024-02-04T03:48:44;0.97;;;0.93;;
10170;SDS011;5127;50.922;6.988;2024-02-04T03:51:15;1.37;;;1.27;;
10170;SDS011;5127;50.922;6.988;2024-02-04T03:53:43;1.30;;;1.20;;
10170;SDS011;5127;50.922;6.988;2024-02-04T03:56:11;1.10;;;1.10;;
10170;SDS011;5127;50.922;6.988;2024-02-04T03:58:38;1.20;;;1.20;;
10170;SDS011;5127;50.922;6.988;2024-02-04T04:01:05;1.33;;;1.20;;
10170;SDS011;5127;50.922;6.988;2024-02-04T04:03:37;1.50;;;1.40;;
10170;SDS011;5127;50.922;6.988;2024-02-04T04:06:05;1.33;;;1.33;;
10170;SDS011;5127;50.922;6.988;2024-02-04T04:08:33;1.70;;;1.60;;
10170;SDS011;5127;50.922;6.988;2024-02-04T04:11:00;1.50;;;1.40;;
10170;SDS011;5127;50.922;6.988;2024-02-04T04:13:27;1.37;;;1.37;;
10170;SDS011;5127;50.922;6.988;2024-02-04T04:15:55;1.80;;;1.57;;
10170;SDS011;5127;50.922;6.988;2024-02-04T04:18:22;2.00;;;1.50;;
10170;SDS011;5127;50.922;6.988;2024-02-04T04:20:51;1.63;;;1.53;;
10170;SDS011;5127;50.922;6.988;2024-02-04T04:23:18;2.43;;;1.77;;
10170;SDS011;5127;50.922;6.988;2024-02-04T04:25:45;1.70;;;1.60;;
10170;SDS011;5127;50.922;6.988;2024-02-04T04:28:12;1.60;;;1.50;;
10170;SDS011;5127;50.922;6.988;2024-02-04T04:30:39;1.70;;;1.60;;
10170;SDS011;5127;50.922;6.988;2024-02-04T04:33:07;1.30;;;1.30;;
10170;SDS011;5127;50.922;6.988;2024-02-04T04:35:34;1.77;;;1.57;;
10170;SDS011;5127;50.922;6.988;2024-02-04T04:38:03;1.40;;;1.30;;
10170;SDS011;5127;50.922;6.988;2024-02-04T04:40:31;1.63;;;1.53;;
10170;SDS011;5127;50.922;6.988;2024-02-04T04:42:58;1.60;;;1.50;;
10170;SDS011;5127;50.922;6.988;2024-02-04T04:45:25;1.57;;;1.47;;
10170;SDS011;5127;50.922;6.988;2024-02-04T04:47:52;3.30;;;1.57;;
10170;SDS011;5127;50.922;6.988;2024-02-04T04:50:20;1.60;;;1.50;;
10170;SDS011;5127;50.922;6.988;2024-02-04T04:52:47;1.67;;;1.57;;
10170;SDS011;5127;50.922;6.988;2024-02-04T04:55:16;1.70;;;1.60;;
10170;SDS011;5127;50.922;6.988;2024-02-04T04:57:43;1.50;;;1.40;;
10170;SDS011;5127;50.922;6.988;2024-02-04T05:00:11;1.67;;;1.57;;
10170;SDS011;5127;50.922;6.988;2024-02-04T05:02:39;2.33;;;1.40;;
10170;SDS011;5127;50.922;6.988;2024-02-04T05:05:10;1.60;;;1.50;;
10170;SDS011;5127;50.922;6.988;2024-02-04T05:07:37;1.70;;;1.60;;
10170;SDS011;5127;50.922;6.988;2024-02-04T05:10:05;1.80;;;1.70;;
10170;SDS011;5127;50.922;6.988;2024-02-04T05:12:34;1.90;;;1.70;;
10170;SDS011;5127;50.922;6.988;2024-02-04T05:15:02;1.60;;;1.50;;
10170;SDS011;5127;50.922;6.988;2024-02-04T05:17:30;3.47;;;2.17;;
10170;SDS011;5127;50.922;6.988;2024-02-04T05:19:59;2.03;;;1.90;;
10170;SDS011;5127;50.922;6.988;2024-02-04T05:22:26;2.03;;;1.93;;
10170;SDS011;5127;50.922;6.988;2024-02-04T05:24:53;2.20;;;2.00;;
10170;SDS011;5127;50.922;6.988;2024-02-04T05:27:20;2.03;;;1.80;;
10170;SDS011;5127;50.922;6.988;2024-02-04T05:29:49;2.00;;;1.90;;
10170;SDS011;5127;50.922;6.988;2024-02-04T05:32:16;2.13;;;1.80;;
10170;SDS011;5127;50.922;6.988;2024-02-04T05:34:43;2.40;;;2.20;;
10170;SDS011;5127;50.922;6.988;2024-02-04T05:37:10;2.20;;;2.00;;
10170;SDS011;5127;50.922;6.988;2024-02-04T05:39:38;2.47;;;2.27;;
10170;SDS011;5127;50.922;6.988;2024-02-04T05:42:05;2.50;;;2.13;;
10170;SDS011;5127;50.922;6.988;2024-02-04T05:44:32;3.07;;;2.40;;
10170;SDS011;5127;50.922;6.988;2024-02-04T05:47:01;2.17;;;1.97;;
10170;SDS011;5127;50.922;6.988;2024-02-04T05:49:28;2.23;;;2.00;;
10170;SDS011;5127;50.922;6.988;2024-02-04T05:51:55;2.87;;;1.97;;
10170;SDS011;5127;50.922;6.988;2024-02-04T05:54:23;2.10;;;2.00;;
10170;SDS011;5127;50.922;6.988;2024-02-04T05:56:50;2.50;;;2.30;;
10170;SDS011;5127;50.922;6.988;2024-02-04T05:59:17;2.70;;;2.50;;
10170;SDS011;5127;50.922;6.988;2024-02-04T06:01:44;2.00;;;1.90;;
10170;SDS011;5127;50.922;6.988;2024-02-04T06:04:13;2.40;;;2.13;;
10170;SDS011;5127;50.922;6.988;2024-02-04T06:06:40;2.10;;;2.00;;
10170;SDS011;5127;50.922;6.988;2024-02-04T06:09:07;2.20;;;1.80;;
10170;SDS011;5127;50.922;6.988;2024-02-04T06:11:36;2.50;;;2.30;;
10170;SDS011;5127;50.922;6.988;2024-02-04T06:14:03;2.13;;;2.03;;
10170;SDS011;5127;50.922;6.988;2024-02-04T06:16:30;2.47;;;2.27;;
10170;SDS011;5127;50.922;6.988;2024-02-04T06:19:00;2.40;;;2.20;;
10170;SDS011;5127;50.922;6.988;2024-02-04T06:21:28;4.33;;;2.40;;
10170;SDS011;5127;50.922;6.988;2024-02-04T06:23:55;2.73;;;2.50;;
10170;SDS011;5127;50.922;6.988;2024-02-04T06:26:23;2.50;;;2.30;;
10170;SDS011;5127;50.922;6.988;2024-02-04T06:28:50;2.60;;;2.40;;
10170;SDS011;5127;50.922;6.988;2024-02-04T06:31:18;2.87;;;2.67;;
10170;SDS011;5127;50.922;6.988;2024-02-04T06:33:45;2.70;;;2.50;;
10170;SDS011;5127;50.922;6.988;2024-02-04T06:36:12;2.10;;;2.00;;
10170;SDS011;5127;50.922;6.988;2024-02-04T06:38:41;2.53;;;2.33;;
10170;SDS011;5127;50.922;6.988;2024-02-04T06:41:08;2.50;;;2.30;;
10170;SDS011;5127;50.922;6.988;2024-02-04T06:43:36;2.67;;;2.47;;
10170;SDS011;5127;50.922;6.988;2024-02-04T06:46:04;2.03;;;1.70;;
10170;SDS011;5127;50.922;6.988;2024-02-04T06:48:31;1.80;;;1.70;;
10170;SDS011;5127;50.922;6.988;2024-02-04T06:50:58;1.80;;;1.70;;
10170;SDS011;5127;50.922;6.988;2024-02-04T06:53:25;1.97;;;1.87;;
10170;SDS011;5127;50.922;6.988;2024-02-04T06:55:54;2.07;;;1.90;;
10170;SDS011;5127;50.922;6.988;2024-02-04T06:58:21;1.90;;;1.80;;
10170;SDS011;5127;50.922;6.988;2024-02-04T07:00:48;1.83;;;1.73;;
10170;SDS011;5127;50.922;6.988;2024-02-04T07:03:15;1.63;;;1.53;;
10170;SDS011;5127;50.922;6.988;2024-02-04T07:05:42;2.27;;;2.07;;
10170;SDS011;5127;50.922;6.988;2024-02-04T07:08:12;1.83;;;1.73;;
10170;SDS011;5127;50.922;6.988;2024-02-04T07:10:40;1.80;;;1.70;;
10170;SDS011;5127;50.922;6.988;2024-02-04T07:13:08;1.57;;;1.47;;
10170;SDS011;5127;50.922;6.988;2024-02-04T07:15:37;1.57;;;1.47;;
10170;SDS011;5127;50.922;6.988;2024-02-04T07:18:04;1.40;;;1.30;;
10170;SDS011;5127;50.922;6.988;2024-02-04T07:20:31;1.40;;;1.30;;
10170;SDS011;5127;50.922;6.988;2024-02-04T07:22:59;1.57;;;1.47;;
10170;SDS011;5127;50.922;6.988;2024-02-04T07:25:26;1.37;;;1.20;;
10170;SDS011;5127;50.922;6.988;2024-02-04T07:27:53;1.30;;;1.20;;
10170;SDS011;5127;50.922;6.988;2024-02-04T07:30:23;1.10;;;1.10;;
10170;SDS011;5127;50.922;6.988;2024-02-04T07:32:50;1.00;;;1.00;;
10170;SDS011;5127;50.922;6.988;2024-02-04T07:35:17;1.10;;;1.10;;
10170;SDS011;5127;50.922;6.988;2024-02-04T07:37:49;1.77;;;1.10;;
10170;SDS011;5127;50.922;6.988;2024-02-04T07:40:16;1.37;;;1.10;;
10170;SDS011;5127;50.922;6.988;2024-02-04T07:42:44;0.70;;;0.70;;
10170;SDS011;5127;50.922;6.988;2024-02-04T07:45:11;0.60;;;0.60;;
10170;SDS011;5127;50.922;6.988;2024-02-04T07:47:40;1.10;;;0.90;;
10170;SDS011;5127;50.922;6.988;2024-02-04T07:50:07;0.80;;;0.80;;
10170;SDS011;5127;50.922;6.988;2024-02-04T07:52:36;0.60;;;0.60;;
10170;SDS011;5127;50.922;6.988;2024-02-04T07:55:03;0.60;;;0.60;;
10170;SDS011;5127;50.922;6.988;2024-02-04T07:57:31;0.70;;;0.50;;
10170;SDS011;5127;50.922;6.988;2024-02-04T07:59:58;0.53;;;0.53;;
10170;SDS011;5127;50.922;6.988;2024-02-04T08:02:25;0.53;;;0.53;;
10170;SDS011;5127;50.922;6.988;2024-02-04T08:04:53;0.93;;;0.70;;
10170;SDS011;5127;50.922;6.988;2024-02-04T08:07:21;0.60;;;0.60;;
10170;SDS011;5127;50.922;6.988;2024-02-04T08:09:48;0.47;;;0.47;;
10170;SDS011;5127;50.922;6.988;2024-02-04T08:12:16;0.93;;;0.60;;
10170;SDS011;5127;50.922;6.988;2024-02-04T08:14:43;0.60;;;0.60;;
10170;SDS011;5127;50.922;6.988;2024-02-04T08:17:10;0.57;;;0.57;;
10170;SDS011;5127;50.922;6.988;2024-02-04T08:19:37;1.43;;;0.70;;
10170;SDS011;5127;50.922;6.988;2024-02-04T08:22:06;0.80;;;0.80;;
10170;SDS011;5127;50.922;6.988;2024-02-04T08:24:33;1.63;;;0.80;;
10170;SDS011;5127;50.922;6.988;2024-02-04T08:27:02;0.70;;;0.70;;
10170;SDS011;5127;50.922;6.988;2024-02-04T08:29:29;0.90;;;0.90;;
10170;SDS011;5127;50.922;6.988;2024-02-04T08:31:56;0.90;;;0.90;;
10170;SDS011;5127;50.922;6.988;2024-02-04T08:34:24;0.80;;;0.80;;
10170;SDS011;5127;50.922;6.988;2024-02-04T08:36:51;0.67;;;0.67;;
10170;SDS011;5127;50.922;6.988;2024-02-04T08:39:20;1.43;;;0.93;;
10170;SDS011;5127;50.922;6.988;2024-02-04T08:41:48;0.93;;;0.80;;
10170;SDS011;5127;50.922;6.988;2024-02-04T08:44:15;2.87;;;1.30;;
10170;SDS011;5127;50.922;6.988;2024-02-04T08:46:42;1.33;;;0.83;;
10170;SDS011;5127;50.922;6.988;2024-02-04T08:49:09;1.17;;;1.00;;
10170;SDS011;5127;50.922;6.988;2024-02-04T08:51:36;0.80;;;0.80;;
10170;SDS011;5127;50.922;6.988;2024-02-04T08:54:04;0.70;;;0.70;;
10170;SDS011;5127;50.922;6.988;2024-02-04T08:56:32;1.67;;;0.90;;
10170;SDS011;5127;50.922;6.988;2024-02-04T08:59:00;0.80;;;0.80;;
10170;SDS011;5127;50.922;6.988;2024-02-04T09:01:27;1.13;;;1.03;;
10170;SDS011;5127;50.922;6.988;2024-02-04T09:03:55;0.80;;;0.80;;
10170;SDS011;5127;50.922;6.988;2024-02-04T09:06:22;1.13;;;1.00;;
10170;SDS011;5127;50.922;6.988;2024-02-04T09:08:49;0.70;;;0.70;;
10170;SDS011;5127;50.922;6.988;2024-02-04T09:11:17;1.43;;;0.97;;
10170;SDS011;5127;50.922;6.988;2024-02-04T09:13:47;0.93;;;0.87;;
10170;SDS011;5127;50.922;6.988;2024-02-04T09:16:15;0.80;;;0.80;;
10170;SDS011;5127;50.922;6.988;2024-02-04T09:18:42;0.80;;;0.80;;
10170;SDS011;5127;50.922;6.988;2024-02-04T09:21:11;0.93;;;0.93;;
10170;SDS011;5127;50.922;6.988;2024-02-04T09:23:38;0.93;;;0.90;;
10170;SDS011;5127;50.922;6.988;2024-02-04T09:26:05;0.80;;;0.80;;
10170;SDS011;5127;50.922;6.988;2024-02-04T09:28:33;1.17;;;0.97;;
10170;SDS011;5127;50.922;6.988;2024-02-04T09:31:01;0.70;;;0.70;;
10170;SDS011;5127;50.922;6.988;2024-02-04T09:33:29;1.00;;;0.90;;
10170;SDS011;5127;50.922;6.988;2024-02-04T09:35:56;0.80;;;0.80;;
10170;SDS011;5127;50.922;6.988;2024-02-04T09:38:23;0.70;;;0.70;;
10170;SDS011;5127;50.922;6.988;2024-02-04T09:40:50;1.00;;;0.90;;
10170;SDS011;5127;50.922;6.988;2024-02-04T09:43:18;0.87;;;0.80;;
10170;SDS011;5127;50.922;6.988;2024-02-04T09:45:46;0.87;;;0.70;;
10170;SDS011;5127;50.922;6.988;2024-02-04T09:48:16;0.80;;;0.80;;
10170;SDS011;5127;50.922;6.988;2024-02-04T09:50:46;0.77;;;0.77;;
10170;SDS011;5127;50.922;6.988;2024-02-04T09:53:14;0.87;;;0.77;;
10170;SDS011;5127;50.922;6.988;2024-02-04T09:55:45;0.70;;;0.70;;
10170;SDS011;5127;50.922;6.988;2024-02-04T09:58:14;0.63;;;0.50;;
10170;SDS011;5127;50.922;6.988;2024-02-04T10:00:41;1.33;;;0.80;;
10170;SDS011;5127;50.922;6.988;2024-02-04T10:03:10;1.17;;;0.80;;
10170;SDS011;5127;50.922;6.988;2024-02-04T10:05:39;1.17;;;1.00;;
10170;SDS011;5127;50.922;6.988;2024-02-04T10:08:06;1.10;;;0.70;;
10170;SDS011;5127;50.922;6.988;2024-02-04T10:10:33;0.90;;;0.90;;
10170;SDS011;5127;50.922;6.988;2024-02-04T10:13:04;0.80;;;0.80;;
10170;SDS011;5127;50.922;6.988;2024-02-04T10:15:33;0.90;;;0.90;;
10170;SDS011;5127;50.922;6.988;2024-02-04T10:18:02;0.73;;;0.73;;
10170;SDS011;5127;50.922;6.988;2024-02-04T10:20:29;0.60;;;0.60;;
10170;SDS011;5127;50.922;6.988;2024-02-04T10:22:58;1.00;;;0.90;;
10170;SDS011;5127;50.922;6.988;2024-02-04T10:25:25;1.00;;;0.90;;
10170;SDS011;5127;50.922;6.988;2024-02-04T10:27:53;0.70;;;0.70;;
10170;SDS011;5127;50.922;6.988;2024-02-04T10:30:20;0.70;;;0.70;;
10170;SDS011;5127;50.922;6.988;2024-02-04T10:32:49;0.70;;;0.70;;
10170;SDS011;5127;50.922;6.988;2024-02-04T10:35:17;1.27;;;0.90;;
10170;SDS011;5127;50.922;6.988;2024-02-04T10:37:45;0.80;;;0.80;;
10170;SDS011;5127;50.922;6.988;2024-02-04T10:40:14;0.80;;;0.80;;
10170;SDS011;5127;50.922;6.988;2024-02-04T10:42:41;0.83;;;0.83;;
10170;SDS011;5127;50.922;6.988;2024-02-04T10:45:09;0.77;;;0.77;;
10170;SDS011;5127;50.922;6.988;2024-02-04T10:47:38;1.17;;;1.00;;
10170;SDS011;5127;50.922;6.988;2024-02-04T10:50:06;0.90;;;0.90;;
10170;SDS011;5127;50.922;6.988;2024-02-04T10:52:35;0.70;;;0.63;;
10170;SDS011;5127;50.922;6.988;2024-02-04T10:55:05;0.87;;;0.87;;
10170;SDS011;5127;50.922;6.988;2024-02-04T10:57:37;3.07;;;0.87;;
10170;SDS011;5127;50.922;6.988;2024-02-04T11:00:05;1.03;;;0.90;;
10170;SDS011;5127;50.922;6.988;2024-02-04T11:02:34;0.70;;;0.70;;
10170;SDS011;5127;50.922;6.988;2024-02-04T11:05:03;0.73;;;0.70;;
10170;SDS011;5127;50.922;6.988;2024-02-04T11:07:32;0.83;;;0.80;;
10170;SDS011;5127;50.922;6.988;2024-02-04T11:09:59;0.70;;;0.70;;
10170;SDS011;5127;50.922;6.988;2024-02-04T11:12:27;1.17;;;0.87;;
10170;SDS011;5127;50.922;6.988;2024-02-04T11:14:57;1.97;;;0.80;;
10170;SDS011;5127;50.922;6.988;2024-02-04T11:17:40;0.80;;;0.80;;
10170;SDS011;5127;50.922;6.988;2024-02-04T11:20:25;0.83;;;0.83;;
10170;SDS011;5127;50.922;6.988;2024-02-04T11:23:12;0.83;;;0.83;;
10170;SDS011;5127;50.922;6.988;2024-02-04T11:25:54;2.37;;;2.07;;
10170;SDS011;5127;50.922;6.988;2024-02-04T11:28:24;0.93;;;0.93;;
10170;SDS011;5127;50.922;6.988;2024-02-04T11:30:57;0.97;;;0.87;;
10170;SDS011;5127;50.922;6.988;2024-02-04T11:33:25;0.80;;;0.80;;
10170;SDS011;5127;50.922;6.988;2024-02-04T11:36:03;1.17;;;0.77;;
10170;SDS011;5127;50.922;6.988;2024-02-04T11:38:32;0.80;;;0.80;;
10170;SDS011;5127;50.922;6.988;2024-02-04T11:41:02;0.80;;;0.80;;
10170;SDS011;5127;50.922;6.988;2024-02-04T11:43:32;0.83;;;0.83;;
10170;SDS011;5127;50.922;6.988;2024-02-04T11:46:03;0.70;;;0.70;;
10170;SDS011;5127;50.922;6.988;2024-02-04T11:48:32;0.83;;;0.83;;
10170;SDS011;5127;50.922;6.988;2024-02-04T11:51:03;1.80;;;0.90;;
10170;SDS011;5127;50.922;6.988;2024-02-04T11:53:31;1.93;;;1.03;;
10170;SDS011;5127;50.922;6.988;2024-02-04T11:55:59;0.83;;;0.83;;
10170;SDS011;5127;50.922;6.988;2024-02-04T11:58:28;1.00;;;0.90;;
10170;SDS011;5127;50.922;6.988;2024-02-04T12:00:56;1.07;;;0.70;;
10170;SDS011;5127;50.922;6.988;2024-02-04T12:03:31;1.33;;;0.70;;
10170;SDS011;5127;50.922;6.988;2024-02-04T12:05:59;1.07;;;1.07;;
10170;SDS011;5127;50.922;6.988;2024-02-04T12:08:29;0.93;;;0.93;;
10170;SDS011;5127;50.922;6.988;2024-02-04T12:10:58;1.03;;;1.03;;
10170;SDS011;5127;50.922;6.988;2024-02-04T12:13:27;0.80;;;0.80;;
10170;SDS011;5127;50.922;6.988;2024-02-04T12:15:55;1.57;;;1.00;;
10170;SDS011;5127;50.922;6.988;2024-02-04T12:18:22;0.97;;;0.87;;
10170;SDS011;5127;50.922;6.988;2024-02-04T12:20:50;1.43;;;0.93;;
10170;SDS011;5127;50.922;6.988;2024-02-04T12:23:18;1.10;;;1.00;;
10170;SDS011;5127;50.922;6.988;2024-02-04T12:25:46;1.20;;;1.10;;
10170;SDS011;5127;50.922;6.988;2024-02-04T12:28:14;0.90;;;0.90;;
10170;SDS011;5127;50.922;6.988;2024-02-04T12:30:51;1.03;;;0.90;;
10170;SDS011;5127;50.922;6.988;2024-02-04T12:33:19;1.00;;;0.90;;
10170;SDS011;5127;50.922;6.988;2024-02-04T12:35:48;0.90;;;0.80;;
10170;SDS011;5127;50.922;6.988;2024-02-04T12:38:21;0.77;;;0.77;;
10170;SDS011;5127;50.922;6.988;2024-02-04T12:40:48;0.90;;;0.90;;
10170;SDS011;5127;50.922;6.988;2024-02-04T12:43:16;1.00;;;0.93;;
10170;SDS011;5127;50.922;6.988;2024-02-04T12:45:43;0.93;;;0.80;;
10170;SDS011;5127;50.922;6.988;2024-02-04T12:48:13;0.80;;;0.80;;
10170;SDS011;5127;50.922;6.988;2024-02-04T12:50:42;1.80;;;0.70;;
10170;SDS011;5127;50.922;6.988;2024-02-04T12:53:11;0.90;;;0.90;;
10170;SDS011;5127;50.922;6.988;2024-02-04T12:55:39;0.73;;;0.73;;
10170;SDS011;5127;50.922;6.988;2024-02-04T12:58:08;0.60;;;0.60;;
10170;SDS011;5127;50.922;6.988;2024-02-04T13:00:37;0.60;;;0.60;;
10170;SDS011;5127;50.922;6.988;2024-02-04T13:03:06;0.90;;;0.90;;
10170;SDS011;5127;50.922;6.988;2024-02-04T13:05:34;1.70;;;0.77;;
10170;SDS011;5127;50.922;6.988;2024-02-04T13:08:02;2.00;;;0.90;;
10170;SDS011;5127;50.922;6.988;2024-02-04T13:10:32;0.80;;;0.80;;
10170;SDS011;5127;50.922;6.988;2024-02-04T13:13:02;0.80;;;0.80;;
10170;SDS011;5127;50.922;6.988;2024-02-04T13:15:31;1.07;;;0.90;;
10170;SDS011;5127;50.922;6.988;2024-02-04T13:17:59;0.80;;;0.80;;
10170;SDS011;5127;50.922;6.988;2024-02-04T13:20:27;1.00;;;0.90;;
10170;SDS011;5127;50.922;6.988;2024-02-04T13:22:54;1.37;;;0.90;;
10170;SDS011;5127;50.922;6.988;2024-02-04T13:25:22;0.90;;;0.90;;
10170;SDS011;5127;50.922;6.988;2024-02-04T13:27:51;1.00;;;1.00;;
10170;SDS011;5127;50.922;6.988;2024-02-04T13:30:19;0.90;;;0.90;;
10170;SDS011;5127;50.922;6.988;2024-02-04T13:32:46;1.00;;;1.00;;
10170;SDS011;5127;50.922;6.988;2024-02-04T13:35:14;1.13;;;1.10;;
10170;SDS011;5127;50.922;6.988;2024-02-04T13:37:43;0.90;;;0.90;;
10170;SDS011;5127;50.922;6.988;2024-02-04T13:40:13;0.90;;;0.90;;
10170;SDS011;5127;50.922;6.988;2024-02-04T13:42:41;0.90;;;0.90;;
10170;SDS011;5127;50.922;6.988;2024-02-04T13:45:10;1.70;;;1.07;;
10170;SDS011;5127;50.922;6.988;2024-02-04T13:47:39;0.80;;;0.80;;
10170;SDS011;5127;50.922;6.988;2024-02-04T13:50:06;1.00;;;0.90;;
10170;SDS011;5127;50.922;6.988;2024-02-04T13:52:34;0.90;;;0.90;;
10170;SDS011;5127;50.922;6.988;2024-02-04T13:55:02;0.87;;;0.87;;
10170;SDS011;5127;50.922;6.988;2024-02-04T13:57:31;1.17;;;0.90;;
10170;SDS011;5127;50.922;6.988;2024-02-04T13:59:59;0.80;;;0.80;;
10170;SDS011;5127;50.922;6.988;2024-02-04T14:02:27;0.80;;;0.80;;
10170;SDS011;5127;50.922;6.988;2024-02-04T14:04:55;0.93;;;0.83;;
10170;SDS011;5127;50.922;6.988;2024-02-04T14:07:22;2.63;;;0.90;;
10170;SDS011;5127;50.922;6.988;2024-02-04T14:09:50;0.70;;;0.63;;
10170;SDS011;5127;50.922;6.988;2024-02-04T14:12:17;0.60;;;0.60;;
10170;SDS011;5127;50.922;6.988;2024-02-04T14:14:44;0.50;;;0.50;;
10170;SDS011;5127;50.922;6.988;2024-02-04T14:17:11;1.33;;;1.10;;
10170;SDS011;5127;50.922;6.988;2024-02-04T14:19:40;0.70;;;0.60;;
10170;SDS011;5127;50.922;6.988;2024-02-04T14:22:10;0.50;;;0.50;;
10170;SDS011;5127;50.922;6.988;2024-02-04T14:24:38;1.27;;;0.50;;
10170;SDS011;5127;50.922;6.988;2024-02-04T14:27:05;0.40;;;0.40;;
10170;SDS011;5127;50.922;6.988;2024-02-04T14:29:32;0.70;;;0.70;;
10170;SDS011;5127;50.922;6.988;2024-02-04T14:31:59;1.03;;;0.70;;
10170;SDS011;5127;50.922;6.988;2024-02-04T14:34:27;1.43;;;0.70;;
10170;SDS011;5127;50.922;6.988;2024-02-04T14:36:55;1.27;;;0.70;;
10170;SDS011;5127;50.922;6.988;2024-02-04T14:39:22;0.70;;;0.60;;
10170;SDS011;5127;50.922;6.988;2024-02-04T14:41:50;0.77;;;0.77;;
10170;SDS011;5127;50.922;6.988;2024-02-04T14:44:19;0.70;;;0.70;;
10170;SDS011;5127;50.922;6.988;2024-02-04T14:46:46;0.70;;;0.70;;
10170;SDS011;5127;50.922;6.988;2024-02-04T14:49:14;0.60;;;0.60;;
10170;SDS011;5127;50.922;6.988;2024-02-04T14:51:41;0.60;;;0.50;;
10170;SDS011;5127;50.922;6.988;2024-02-04T14:54:10;0.57;;;0.57;;
10170;SDS011;5127;50.922;6.988;2024-02-04T14:56:38;1.10;;;0.80;;
10170;SDS011;5127;50.922;6.988;2024-02-04T14:59:05;0.63;;;0.63;;
10170;SDS011;5127;50.922;6.988;2024-02-04T15:01:34;0.70;;;0.60;;
10170;SDS011;5127;50.922;6.988;2024-02-04T15:04:02;0.67;;;0.63;;
10170;SDS011;5127;50.922;6.988;2024-02-04T15:06:30;0.70;;;0.60;;